Brora, United Kingdom
Current Conditions -  °F | °C
As of 7:50 AM on Saturday 25 Oct 2014 (Local Time) from EGQK Reporting Station
Broken Clouds Broken Clouds  
Wind Chill: 10°   Ceiling: 24000
Heat Index: 10°   Visibility: 6mi
Dew Point:   Wind: 14mph
Humidity: 76%   Direction: 200°SSW
Pressure: 29.47"   Gusts: NA
Location:  58.01°N, 3.85°W
Report Text: EGQK 250650Z AUTO 20012KT 9999 SCT046/// BKN240/// 10/06 Q0998
Loading
Personal Weather Stations






























Interactive Weather Map
Tropical Storm Tracking
New forecast layout! Learn more

10-Day Weather Forecast

Advertisements
Track Severe Weather on mobile